createdAt,value
2018-09-14T00:02:18.119Z,67.16
2018-09-14T00:04:46.652Z,67.09
2018-09-14T00:07:15.191Z,66.54
2018-09-14T00:09:43.836Z,66.93
2018-09-14T00:12:12.376Z,66.55
2018-09-14T00:14:40.928Z,66.90
2018-09-14T00:17:09.590Z,66.58
2018-09-14T00:19:38.171Z,66.39
2018-09-14T00:22:06.995Z,66.53
2018-09-14T00:24:35.520Z,66.93
2018-09-14T00:27:04.162Z,66.85
2018-09-14T00:29:32.704Z,66.77
2018-09-14T00:32:01.243Z,67.01
2018-09-14T00:34:29.848Z,66.84
2018-09-14T00:36:58.383Z,67.78
2018-09-14T00:39:26.916Z,67.30
2018-09-14T00:41:55.493Z,67.49
2018-09-14T00:44:24.110Z,67.67
2018-09-14T00:46:52.633Z,67.61
2018-09-14T00:49:21.168Z,68.26
2018-09-14T00:51:49.721Z,67.65
2018-09-14T00:54:18.271Z,67.99
2018-09-14T00:56:46.836Z,68.47
2018-09-14T00:59:15.462Z,69.54
2018-09-14T01:01:44.681Z,69.41
2018-09-14T01:04:13.220Z,69.63
2018-09-14T01:06:41.938Z,69.97
2018-09-14T01:09:18.401Z,69.54
2018-09-14T01:11:47.367Z,69.49
2018-09-14T01:14:15.907Z,69.28
2018-09-14T01:16:44.802Z,68.89
2018-09-14T01:19:13.440Z,68.45
2018-09-14T01:21:42.056Z,69.09
2018-09-14T01:24:10.597Z,68.62
2018-09-14T01:26:39.154Z,69.48
2018-09-14T01:29:07.674Z,69.96
2018-09-14T01:31:36.216Z,69.87
2018-09-14T01:34:04.790Z,69.68
2018-09-14T01:36:33.327Z,69.01
2018-09-14T01:39:02.714Z,68.73
2018-09-14T01:41:31.270Z,69.25
2018-09-14T01:43:59.861Z,69.30
2018-09-14T01:46:28.444Z,69.28
2018-09-14T01:48:57.000Z,70.42
2018-09-14T01:51:25.627Z,70.73
2018-09-14T01:53:54.193Z,71.42
2018-09-14T01:56:22.779Z,72.15
2018-09-14T01:58:51.330Z,72.23
2018-09-14T02:01:20.204Z,72.33
2018-09-14T02:03:48.815Z,72.17
2018-09-14T02:06:17.371Z,72.96
2018-09-14T02:08:46.119Z,72.90
2018-09-14T02:11:15.561Z,72.32
2018-09-14T02:13:44.326Z,72.91
2018-09-14T02:16:12.876Z,72.59
2018-09-14T02:18:41.412Z,73.36
2018-09-14T02:21:10.028Z,73.30
2018-09-14T02:23:38.559Z,73.06
2018-09-14T02:26:07.264Z,72.89
2018-09-14T02:28:35.946Z,72.50
2018-09-14T02:31:04.543Z,73.16
2018-09-14T02:33:33.088Z,72.85
2018-09-14T02:36:01.629Z,73.01
2018-09-14T02:38:30.143Z,73.46
2018-09-14T02:40:58.732Z,73.63
2018-09-14T02:43:27.415Z,73.49
2018-09-14T02:45:55.936Z,73.00
2018-09-14T02:48:24.560Z,73.22
2018-09-14T02:50:53.113Z,73.11
2018-09-14T02:53:21.729Z,74.14
2018-09-14T02:55:50.338Z,73.39
2018-09-14T02:58:19.063Z,73.65
2018-09-14T03:00:47.611Z,73.48
2018-09-14T03:03:16.148Z,73.48
2018-09-14T03:05:44.784Z,73.42
2018-09-14T03:08:13.309Z,73.73
2018-09-14T03:10:41.839Z,73.57
2018-09-14T03:13:10.647Z,74.17
2018-09-14T03:15:39.411Z,74.25
2018-09-14T03:18:08.001Z,74.51
2018-09-14T03:20:36.523Z,74.75
2018-09-14T03:23:05.066Z,74.62
2018-09-14T03:25:33.604Z,74.79
2018-09-14T03:28:02.155Z,74.39
2018-09-14T03:30:30.707Z,74.26
2018-09-14T03:32:59.238Z,74.05
2018-09-14T03:35:27.887Z,74.54
2018-09-14T03:37:56.432Z,74.58
2018-09-14T03:40:24.972Z,75.03
2018-09-14T03:42:53.514Z,75.64
2018-09-14T03:45:22.125Z,75.67
2018-09-14T03:47:52.899Z,76.00
2018-09-14T03:50:22.909Z,75.92
2018-09-14T03:52:51.547Z,75.97
2018-09-14T03:55:20.095Z,75.95
2018-09-14T03:57:48.649Z,76.62
2018-09-14T04:00:17.254Z,76.59
2018-09-14T04:02:46.632Z,76.97
2018-09-14T04:05:15.186Z,76.78
2018-09-14T04:07:44.354Z,76.95
2018-09-14T04:10:13.065Z,76.88
2018-09-14T04:12:41.604Z,77.16
2018-09-14T04:15:11.009Z,78.34
2018-09-14T04:17:39.562Z,78.78
2018-09-14T04:20:08.899Z,78.50
2018-09-14T04:22:38.270Z,78.58
2018-09-14T04:25:06.817Z,79.06
2018-09-14T04:27:35.458Z,79.16
2018-09-14T04:30:04.437Z,78.55
2018-09-14T04:32:32.984Z,79.25
2018-09-14T04:35:01.999Z,78.99
2018-09-14T04:37:30.525Z,78.57
2018-09-14T04:39:59.045Z,78.73
2018-09-14T04:42:27.608Z,79.18
2018-09-14T04:44:56.161Z,79.03
2018-09-14T04:47:24.705Z,79.31
2018-09-14T04:49:53.296Z,79.15
2018-09-14T04:52:21.848Z,78.71
2018-09-14T04:54:50.405Z,78.87
2018-09-14T04:57:18.967Z,78.57
2018-09-14T04:59:47.537Z,78.98
2018-09-14T05:02:16.729Z,78.80
2018-09-14T05:04:45.281Z,78.50
2018-09-14T05:07:13.858Z,78.13
2018-09-14T05:09:42.452Z,78.10
2018-09-14T05:12:11.060Z,77.88
2018-09-14T05:14:39.629Z,78.67
2018-09-14T05:17:08.199Z,78.80
2018-09-14T05:19:36.797Z,79.50
2018-09-14T05:22:05.349Z,79.67
2018-09-14T05:24:34.048Z,79.44
2018-09-14T05:27:02.564Z,79.51
2018-09-14T05:29:31.096Z,79.56
2018-09-14T05:31:59.649Z,79.31
2018-09-14T05:34:28.188Z,79.41
2018-09-14T05:36:56.741Z,79.33
2018-09-14T05:39:25.289Z,79.45
2018-09-14T05:41:53.977Z,79.08
2018-09-14T05:44:22.517Z,79.25
2018-09-14T05:46:51.160Z,79.30
2018-09-14T05:49:19.739Z,78.88
2018-09-14T05:51:48.284Z,77.63
2018-09-14T05:54:16.839Z,77.35
2018-09-14T05:56:45.407Z,77.51
2018-09-14T05:59:13.986Z,76.46
2018-09-14T06:01:43.652Z,76.37
2018-09-14T06:04:12.190Z,74.95
2018-09-14T06:06:40.722Z,75.90
2018-09-14T06:09:11.016Z,76.41
2018-09-14T06:11:39.628Z,75.19
2018-09-14T06:14:08.244Z,74.96
2018-09-14T06:16:36.908Z,74.81
2018-09-14T06:19:05.587Z,73.36
2018-09-14T06:21:34.257Z,74.13
2018-09-14T06:24:02.906Z,73.62
2018-09-14T06:26:31.659Z,73.87
2018-09-14T06:29:00.238Z,73.74
2018-09-14T06:31:28.775Z,74.11
2018-09-14T06:33:57.351Z,74.36
2018-09-14T06:36:25.904Z,73.87
2018-09-14T06:38:54.510Z,73.91
2018-09-14T06:41:23.085Z,73.40
2018-09-14T06:43:51.656Z,73.06
2018-09-14T06:46:20.339Z,73.28
2018-09-14T06:48:48.888Z,71.80
2018-09-14T06:51:17.449Z,72.09
2018-09-14T06:53:45.991Z,72.28
2018-09-14T06:56:14.741Z,71.95
2018-09-14T06:58:43.290Z,71.50
2018-09-14T07:01:11.832Z,71.95
2018-09-14T07:03:40.479Z,72.09
2018-09-14T07:06:09.080Z,71.96
2018-09-14T07:08:37.622Z,70.55
2018-09-14T07:11:06.166Z,70.12
2018-09-14T07:13:34.778Z,70.69
2018-09-14T07:16:03.379Z,71.26
2018-09-14T07:18:31.923Z,70.65
2018-09-14T07:21:00.488Z,70.06
2018-09-14T07:23:29.129Z,70.18
2018-09-14T07:25:57.689Z,69.90
2018-09-14T07:28:26.260Z,70.04
2018-09-14T07:30:54.816Z,67.94
2018-09-14T07:33:23.357Z,69.22
2018-09-14T07:35:51.907Z,69.12
2018-09-14T07:38:20.448Z,69.95
2018-09-14T07:40:48.979Z,69.75
2018-09-14T07:43:17.546Z,68.53
2018-09-14T07:45:46.107Z,68.83
2018-09-14T07:48:14.693Z,69.17
2018-09-14T07:50:43.267Z,69.08
2018-09-14T07:53:11.827Z,68.04
2018-09-14T07:55:40.396Z,67.64
2018-09-14T07:58:09.012Z,67.76
2018-09-14T08:00:37.667Z,66.69
2018-09-14T08:03:07.107Z,66.96
2018-09-14T08:05:35.727Z,66.82
2018-09-14T08:08:04.304Z,66.63
2018-09-14T08:10:32.837Z,66.45
2018-09-14T08:13:01.380Z,66.11
2018-09-14T08:15:29.957Z,65.76
2018-09-14T08:17:58.520Z,66.73
2018-09-14T08:20:27.100Z,66.94
2018-09-14T08:22:55.639Z,65.37
2018-09-14T08:25:24.189Z,65.66
2018-09-14T08:27:52.758Z,66.75
2018-09-14T08:30:21.312Z,65.88
2018-09-14T08:32:49.871Z,66.70
2018-09-14T08:35:18.508Z,66.56
2018-09-14T08:37:47.093Z,65.43
2018-09-14T08:40:15.635Z,65.90
2018-09-14T08:42:44.173Z,66.26
2018-09-14T08:45:12.867Z,66.18
2018-09-14T08:47:41.418Z,66.64
2018-09-14T08:50:09.969Z,67.42
2018-09-14T08:52:38.524Z,67.82
2018-09-14T08:55:07.200Z,67.22
2018-09-14T08:57:35.824Z,68.31
2018-09-14T09:00:04.412Z,67.65
2018-09-14T09:02:32.971Z,68.53
2018-09-14T09:05:01.573Z,68.34
2018-09-14T09:07:30.138Z,68.60
2018-09-14T09:09:58.679Z,68.45
2018-09-14T09:12:27.232Z,68.15
2018-09-14T09:14:55.996Z,68.20
2018-09-14T09:17:24.584Z,68.30
2018-09-14T09:19:53.187Z,68.34
2018-09-14T09:22:21.736Z,67.96
2018-09-14T09:24:50.274Z,67.68
2018-09-14T09:27:18.839Z,68.15
2018-09-14T09:29:47.489Z,67.46
2018-09-14T09:32:16.051Z,66.95
2018-09-14T09:34:44.600Z,67.65
2018-09-14T09:37:13.182Z,66.11
2018-09-14T09:39:41.810Z,66.78
2018-09-14T09:42:10.385Z,66.78
2018-09-14T09:44:38.932Z,67.30
2018-09-14T09:47:07.515Z,67.93
2018-09-14T09:49:36.060Z,67.55
2018-09-14T09:52:04.635Z,67.49
2018-09-14T09:54:33.393Z,67.02
2018-09-14T09:57:02.101Z,67.76
2018-09-14T09:59:30.704Z,67.72
2018-09-14T10:02:04.481Z,67.88
2018-09-14T10:04:34.276Z,68.15
2018-09-14T10:07:02.884Z,67.87
2018-09-14T10:09:31.433Z,67.88
2018-09-14T10:12:00.021Z,66.68
2018-09-14T10:14:28.604Z,68.54
2018-09-14T10:16:57.469Z,68.75
2018-09-14T10:19:26.747Z,69.08
2018-09-14T10:21:55.701Z,69.16
2018-09-14T10:24:24.305Z,68.00
2018-09-14T10:26:52.859Z,67.22
2018-09-14T10:29:21.416Z,67.53
2018-09-14T10:31:49.998Z,68.23
2018-09-14T10:34:18.553Z,67.97
2018-09-14T10:36:47.561Z,67.67
2018-09-14T10:39:16.160Z,67.56
2018-09-14T10:41:44.784Z,68.02
2018-09-14T10:44:13.324Z,67.37
2018-09-14T10:46:41.912Z,67.05
2018-09-14T10:49:19.590Z,67.47
2018-09-14T10:51:59.923Z,67.46
2018-09-14T10:54:28.519Z,67.30
2018-09-14T10:56:57.132Z,67.59
2018-09-14T10:59:25.666Z,68.28
2018-09-14T11:01:54.246Z,67.92
2018-09-14T11:04:22.879Z,68.04
2018-09-14T11:06:51.567Z,67.84
2018-09-14T11:09:20.116Z,67.69
2018-09-14T11:11:48.655Z,68.22
2018-09-14T11:14:17.237Z,68.75
2018-09-14T11:16:45.793Z,70.66
2018-09-14T11:19:14.445Z,71.90
2018-09-14T11:21:43.031Z,73.65
2018-09-14T11:24:11.568Z,74.50
2018-09-14T11:26:40.117Z,75.75
2018-09-14T11:29:08.690Z,75.67
2018-09-14T11:31:37.338Z,76.42
2018-09-14T11:34:05.933Z,76.04
2018-09-14T11:36:34.501Z,76.37
2018-09-14T11:39:03.164Z,77.21
2018-09-14T11:41:31.792Z,77.22
2018-09-14T11:44:00.349Z,75.66
2018-09-14T11:46:28.917Z,76.42
2018-09-14T11:48:57.475Z,76.38
2018-09-14T11:51:26.050Z,77.08
2018-09-14T11:53:54.681Z,77.12
2018-09-14T11:56:23.304Z,77.23
2018-09-14T11:58:51.859Z,76.68
2018-09-14T12:01:20.509Z,76.82
2018-09-14T12:03:49.762Z,76.37
2018-09-14T12:06:18.318Z,74.31
2018-09-14T12:08:46.980Z,74.56
2018-09-14T12:11:15.546Z,74.08
2018-09-14T12:13:44.230Z,74.37
2018-09-14T12:16:12.765Z,74.71
2018-09-14T12:18:42.189Z,74.33
2018-09-14T12:21:10.799Z,75.07
2018-09-14T12:23:39.372Z,74.28
2018-09-14T12:26:07.920Z,74.85
2018-09-14T12:28:36.476Z,74.68
2018-09-14T12:31:05.020Z,74.04
2018-09-14T12:33:33.685Z,74.61
2018-09-14T12:36:02.249Z,74.70
2018-09-14T12:38:30.796Z,73.97
2018-09-14T12:40:59.358Z,73.81
2018-09-14T12:43:27.911Z,74.30
2018-09-14T12:45:56.461Z,73.28
2018-09-14T12:48:25.028Z,72.70
2018-09-14T12:50:53.568Z,72.44
2018-09-14T12:53:22.113Z,73.62
2018-09-14T12:55:50.728Z,72.49
2018-09-14T12:58:19.287Z,72.92
2018-09-14T13:00:47.853Z,72.01
2018-09-14T13:03:16.405Z,71.03
2018-09-14T13:05:45.074Z,70.50
2018-09-14T13:08:13.625Z,70.29
2018-09-14T13:10:42.188Z,69.78
2018-09-14T13:13:10.781Z,70.45
2018-09-14T13:15:39.356Z,69.06
2018-09-14T13:18:07.924Z,68.66
2018-09-14T13:20:36.506Z,68.96
2018-09-14T13:23:05.188Z,68.25
2018-09-14T13:25:33.738Z,67.44
2018-09-14T13:28:02.359Z,69.31
2018-09-14T13:30:31.047Z,70.39
2018-09-14T13:32:59.612Z,71.47
2018-09-14T13:35:28.155Z,71.14
2018-09-14T13:37:56.754Z,71.00
2018-09-14T13:40:25.398Z,72.27
2018-09-14T13:42:53.972Z,71.48
2018-09-14T13:45:22.642Z,71.97
2018-09-14T13:47:51.284Z,72.33
2018-09-14T13:50:21.295Z,72.13
2018-09-14T13:52:52.039Z,73.88
2018-09-14T13:55:21.979Z,75.48
2018-09-14T13:57:50.554Z,76.28
2018-09-14T14:00:19.133Z,77.74
2018-09-14T14:02:49.314Z,77.47
2018-09-14T14:05:17.869Z,77.66
2018-09-14T14:07:46.621Z,77.68
2018-09-14T14:10:17.451Z,78.43
2018-09-14T14:12:45.963Z,77.19
2018-09-14T14:15:14.509Z,77.37
2018-09-14T14:17:43.108Z,78.21
2018-09-14T14:20:13.442Z,78.17
2018-09-14T14:22:42.212Z,77.38
2018-09-14T14:25:10.762Z,77.21
2018-09-14T14:27:39.451Z,77.49
2018-09-14T14:30:08.142Z,77.49
2018-09-14T14:32:36.705Z,77.96
2018-09-14T14:35:05.778Z,77.44
2018-09-14T14:37:34.390Z,77.08
2018-09-14T14:40:02.983Z,77.44
2018-09-14T14:42:32.531Z,77.55
2018-09-14T14:45:01.140Z,77.71
2018-09-14T14:47:31.463Z,77.48
2018-09-14T14:50:00.024Z,77.12
2018-09-14T14:52:28.589Z,77.74
2018-09-14T15:00:38.219Z,76.87
2018-09-14T15:03:09.060Z,76.46
2018-09-14T15:05:37.680Z,77.23
2018-09-14T15:08:06.274Z,77.11
2018-09-14T15:10:34.832Z,76.99
2018-09-14T15:13:03.577Z,77.02
2018-09-14T15:15:32.260Z,77.06
2018-09-14T15:18:00.897Z,77.35
2018-09-14T15:20:29.507Z,76.66
2018-09-14T15:22:58.097Z,75.82
2018-09-14T15:25:26.640Z,76.47
2018-09-14T15:27:55.264Z,77.15
2018-09-14T15:30:23.988Z,76.87
2018-09-14T15:32:52.839Z,76.64
2018-09-14T15:35:21.455Z,76.21
2018-09-14T15:37:50.267Z,75.90
2018-09-14T15:40:19.000Z,76.26
2018-09-14T15:42:47.538Z,77.00
2018-09-14T15:45:16.150Z,77.35
2018-09-14T15:47:44.781Z,77.15
2018-09-14T15:50:13.362Z,77.44
2018-09-14T15:52:41.957Z,77.79
2018-09-14T15:55:10.908Z,77.36
2018-09-14T15:57:40.406Z,77.37
2018-09-14T16:00:09.024Z,77.45
2018-09-14T16:02:38.123Z,78.69
2018-09-14T16:05:06.700Z,79.35
2018-09-14T16:07:35.280Z,80.09
2018-09-14T16:10:04.013Z,79.00
2018-09-14T16:12:32.852Z,79.02
2018-09-14T16:15:01.435Z,79.58
2018-09-14T16:17:31.238Z,79.50
2018-09-14T16:19:59.909Z,79.72
2018-09-14T16:22:28.466Z,79.18
2018-09-14T16:24:57.457Z,79.17
2018-09-14T16:27:26.087Z,79.21
2018-09-14T16:29:54.696Z,78.53
2018-09-14T16:32:23.250Z,79.19
2018-09-14T16:34:51.904Z,79.19
2018-09-14T16:37:20.518Z,79.28
2018-09-14T16:39:49.038Z,78.73
2018-09-14T16:42:17.585Z,79.38
2018-09-14T16:44:46.159Z,78.43
2018-09-14T16:47:14.769Z,78.10
2018-09-14T16:49:43.364Z,79.00
2018-09-14T16:52:11.962Z,78.67
2018-09-14T16:54:40.605Z,78.68
2018-09-14T16:57:09.146Z,79.16
2018-09-14T16:59:37.789Z,79.04
2018-09-14T17:02:06.958Z,78.80
2018-09-14T17:04:38.355Z,79.02
2018-09-14T17:07:08.833Z,79.17
2018-09-14T17:09:38.162Z,79.30
2018-09-14T17:12:06.811Z,79.04
2018-09-14T17:14:35.444Z,78.79
2018-09-14T17:17:04.073Z,78.92
2018-09-14T17:19:32.684Z,79.36
2018-09-14T17:22:01.263Z,79.28
2018-09-14T17:24:29.824Z,79.69
2018-09-14T17:27:01.452Z,79.40
2018-09-14T17:29:29.991Z,79.52
2018-09-14T17:31:58.568Z,80.31
2018-09-14T17:34:35.248Z,79.98
2018-09-14T17:37:04.286Z,80.80
2018-09-14T17:39:32.866Z,81.47
2018-09-14T17:42:01.572Z,81.59
2018-09-14T17:44:30.217Z,81.60
2018-09-14T17:47:08.904Z,81.38
2018-09-14T17:49:37.476Z,81.40
2018-09-14T17:52:06.044Z,81.53
2018-09-14T17:54:34.657Z,81.71
2018-09-14T17:57:03.247Z,82.07
2018-09-14T17:59:31.869Z,81.68
2018-09-14T18:02:00.475Z,81.57
2018-09-14T18:04:29.030Z,82.38
2018-09-14T18:06:57.636Z,82.49
2018-09-14T18:09:26.261Z,82.27
2018-09-14T18:12:04.425Z,82.40
2018-09-14T18:14:32.990Z,82.74
2018-09-14T18:17:01.528Z,83.33
2018-09-14T18:19:30.114Z,82.89
2018-09-14T18:21:58.699Z,82.65
2018-09-14T18:24:27.260Z,82.12
2018-09-14T18:26:55.964Z,82.72
2018-09-14T18:29:24.687Z,81.95
2018-09-14T18:31:53.273Z,82.84
2018-09-14T18:34:21.836Z,82.49
2018-09-14T18:36:50.450Z,82.58
2018-09-14T18:39:19.029Z,81.98
2018-09-14T18:41:47.745Z,82.47
2018-09-14T18:44:25.272Z,82.61
2018-09-14T18:46:54.205Z,82.44
2018-09-14T18:49:23.078Z,82.43
2018-09-14T18:51:51.948Z,82.17
2018-09-14T18:54:20.786Z,81.97
2018-09-14T18:56:49.428Z,81.91
2018-09-14T18:59:33.917Z,81.91
2018-09-14T19:02:02.497Z,81.27
2018-09-14T19:04:31.064Z,82.32
2018-09-14T19:06:59.743Z,82.38
2018-09-14T19:09:28.315Z,82.18
2018-09-14T19:11:56.928Z,82.10
2018-09-14T19:14:25.691Z,82.23
2018-09-14T19:16:54.253Z,82.06
2018-09-14T19:19:23.164Z,81.78
2018-09-14T19:21:51.677Z,82.15
2018-09-14T19:24:20.376Z,81.91
2018-09-14T19:26:48.927Z,82.05
2018-09-14T19:29:17.532Z,81.53
2018-09-14T19:31:46.186Z,81.38
2018-09-14T19:34:14.747Z,81.35
2018-09-14T19:36:43.374Z,81.66
2018-09-14T19:39:13.082Z,81.22
2018-09-14T19:41:41.708Z,81.32
2018-09-14T19:44:22.583Z,82.20
2018-09-14T19:46:51.139Z,82.31
2018-09-14T19:49:19.829Z,82.22
2018-09-14T19:51:48.379Z,81.78
2018-09-14T19:54:17.093Z,82.47
2018-09-14T19:56:45.756Z,82.24
2018-09-14T19:59:14.352Z,82.62
2018-09-14T20:01:43.535Z,82.11
2018-09-14T20:04:12.089Z,82.21
2018-09-14T20:06:40.820Z,82.17
2018-09-14T20:09:11.669Z,82.45
2018-09-14T20:11:40.289Z,82.29
2018-09-14T20:14:20.292Z,81.90
2018-09-14T20:16:48.872Z,81.39
2018-09-14T20:19:17.427Z,81.81
2018-09-14T20:21:46.005Z,81.45
2018-09-14T20:24:14.574Z,81.48
2018-09-14T20:26:43.181Z,81.22
2018-09-14T20:29:12.575Z,80.81
2018-09-14T20:31:41.256Z,81.66
2018-09-14T20:34:09.888Z,81.62
2018-09-14T20:36:38.446Z,82.33
2018-09-14T20:39:08.974Z,82.26
2018-09-14T20:41:37.679Z,82.09
2018-09-14T20:44:08.333Z,82.48
2018-09-14T20:46:37.106Z,82.34
2018-09-14T20:49:05.809Z,82.33
2018-09-14T20:51:34.409Z,82.78
2018-09-14T20:54:02.977Z,82.37
2018-09-14T20:56:31.551Z,82.35
2018-09-14T20:59:00.989Z,82.63
2018-09-14T21:01:29.716Z,82.07
2018-09-14T21:03:58.281Z,83.14
2018-09-14T21:06:26.864Z,82.93
2018-09-14T21:08:55.464Z,82.78
2018-09-14T21:11:24.022Z,82.00
2018-09-14T21:13:52.581Z,82.33
2018-09-14T21:16:27.957Z,82.85
2018-09-14T21:18:56.541Z,82.47
2018-09-14T21:21:25.096Z,82.83
2018-09-14T21:23:53.714Z,82.33
2018-09-14T21:26:22.238Z,83.08
2018-09-14T21:28:50.791Z,82.99
2018-09-14T21:31:19.353Z,82.63
2018-09-14T21:33:47.904Z,82.00
2018-09-14T21:36:16.462Z,81.76
2018-09-14T21:38:45.008Z,81.92
2018-09-14T21:41:13.546Z,82.49
2018-09-14T21:43:42.121Z,81.81
2018-09-14T21:46:10.668Z,82.49
2018-09-14T21:48:39.321Z,82.15
2018-09-14T21:51:07.890Z,82.23
2018-09-14T21:53:36.552Z,82.53
2018-09-14T21:56:05.067Z,82.53
2018-09-14T21:58:33.616Z,82.30
2018-09-14T22:01:06.346Z,82.38
2018-09-14T22:03:34.922Z,82.67
2018-09-14T22:06:03.479Z,82.98
2018-09-14T22:08:32.028Z,82.23
2018-09-14T22:11:00.620Z,82.89
2018-09-14T22:13:29.217Z,82.25
2018-09-14T22:15:57.775Z,81.77
2018-09-14T22:18:26.417Z,82.26
2018-09-14T22:20:55.008Z,82.23
2018-09-14T22:23:23.657Z,82.11
2018-09-14T22:25:52.409Z,82.05
2018-09-14T22:31:11.392Z,81.38
2018-09-14T22:33:40.058Z,80.39
2018-09-14T22:36:08.656Z,80.92
2018-09-14T22:38:37.500Z,81.33
2018-09-14T22:41:06.065Z,81.65
2018-09-14T22:43:34.631Z,80.94
2018-09-14T22:46:03.165Z,81.78
2018-09-14T22:48:31.772Z,80.93
2018-09-14T22:51:00.401Z,81.40
2018-09-14T22:53:29.064Z,81.12
2018-09-14T22:55:57.648Z,80.75
2018-09-14T22:58:26.227Z,80.88
2018-09-14T23:01:00.021Z,81.27
2018-09-14T23:03:28.529Z,81.55
2018-09-14T23:05:57.064Z,81.09
2018-09-14T23:08:25.582Z,81.26
2018-09-14T23:10:54.331Z,81.75
2018-09-14T23:13:22.964Z,82.13
2018-09-14T23:15:59.326Z,82.14
2018-09-14T23:18:28.379Z,82.24
2018-09-14T23:20:56.935Z,82.47
2018-09-14T23:23:25.570Z,82.30
2018-09-14T23:25:56.178Z,81.66
2018-09-14T23:28:24.729Z,82.46
2018-09-14T23:30:53.268Z,82.48
2018-09-14T23:33:22.058Z,81.15
2018-09-14T23:35:50.604Z,81.59
2018-09-14T23:38:19.207Z,82.33
2018-09-14T23:40:47.833Z,81.96
2018-09-14T23:43:16.400Z,82.56
2018-09-14T23:45:44.948Z,82.58
2018-09-14T23:48:13.565Z,82.64
2018-09-14T23:50:42.112Z,82.63
2018-09-14T23:53:10.805Z,82.05
2018-09-14T23:55:39.360Z,82.19
2018-09-14T23:58:07.964Z,82.06
